sensor_id;sensor_type;location;lat;lon;timestamp;P1;durP1;ratioP1;P2;durP2;ratioP2
47603;SDS011;33326;51.116;6.900;2023-04-07T00:00:50;24.65;;;18.92;;
47603;SDS011;33326;51.116;6.900;2023-04-07T00:05:52;28.15;;;20.05;;
47603;SDS011;33326;51.116;6.900;2023-04-07T00:10:55;29.27;;;20.13;;
47603;SDS011;33326;51.116;6.900;2023-04-07T00:15:57;26.30;;;19.35;;
47603;SDS011;33326;51.116;6.900;2023-04-07T00:20:59;27.42;;;20.35;;
47603;SDS011;33326;51.116;6.900;2023-04-07T00:26:02;26.80;;;19.58;;
47603;SDS011;33326;51.116;6.900;2023-04-07T00:31:04;28.65;;;20.70;;
47603;SDS011;33326;51.116;6.900;2023-04-07T00:36:06;27.40;;;19.10;;
47603;SDS011;33326;51.116;6.900;2023-04-07T00:41:10;28.50;;;19.50;;
47603;SDS011;33326;51.116;6.900;2023-04-07T00:46:11;26.85;;;19.52;;
47603;SDS011;33326;51.116;6.900;2023-04-07T00:51:13;32.28;;;21.17;;
47603;SDS011;33326;51.116;6.900;2023-04-07T00:56:17;29.38;;;21.08;;
47603;SDS011;33326;51.116;6.900;2023-04-07T01:01:21;27.77;;;21.08;;
47603;SDS011;33326;51.116;6.900;2023-04-07T01:06:25;28.65;;;20.92;;
47603;SDS011;33326;51.116;6.900;2023-04-07T01:11:34;30.75;;;20.88;;
47603;SDS011;33326;51.116;6.900;2023-04-07T01:16:50;32.53;;;21.02;;
47603;SDS011;33326;51.116;6.900;2023-04-07T01:21:55;27.50;;;20.85;;
47603;SDS011;33326;51.116;6.900;2023-04-07T01:27:04;28.58;;;20.33;;
47603;SDS011;33326;51.116;6.900;2023-04-07T01:32:17;28.40;;;20.13;;
47603;SDS011;33326;51.116;6.900;2023-04-07T01:37:20;28.25;;;20.05;;
47603;SDS011;33326;51.116;6.900;2023-04-07T01:42:22;26.67;;;20.65;;
47603;SDS011;33326;51.116;6.900;2023-04-07T01:47:27;30.17;;;21.10;;
47603;SDS011;33326;51.116;6.900;2023-04-07T01:52:31;30.88;;;21.52;;
47603;SDS011;33326;51.116;6.900;2023-04-07T01:57:35;30.58;;;21.40;;
47603;SDS011;33326;51.116;6.900;2023-04-07T02:02:45;31.60;;;23.30;;
47603;SDS011;33326;51.116;6.900;2023-04-07T02:07:52;30.70;;;23.00;;
47603;SDS011;33326;51.116;6.900;2023-04-07T02:12:58;32.63;;;23.92;;
47603;SDS011;33326;51.116;6.900;2023-04-07T02:18:03;29.38;;;22.70;;
47603;SDS011;33326;51.116;6.900;2023-04-07T02:23:11;33.95;;;24.75;;
47603;SDS011;33326;51.116;6.900;2023-04-07T02:28:13;35.67;;;25.73;;
47603;SDS011;33326;51.116;6.900;2023-04-07T02:33:16;41.63;;;27.63;;
47603;SDS011;33326;51.116;6.900;2023-04-07T02:38:18;40.05;;;26.92;;
47603;SDS011;33326;51.116;6.900;2023-04-07T02:43:20;40.63;;;26.92;;
47603;SDS011;33326;51.116;6.900;2023-04-07T02:48:26;43.85;;;29.13;;
47603;SDS011;33326;51.116;6.900;2023-04-07T02:53:28;40.63;;;26.52;;
47603;SDS011;33326;51.116;6.900;2023-04-07T02:58:30;59.03;;;32.42;;
47603;SDS011;33326;51.116;6.900;2023-04-07T03:03:33;49.80;;;30.77;;
47603;SDS011;33326;51.116;6.900;2023-04-07T03:08:49;58.72;;;31.70;;
47603;SDS011;33326;51.116;6.900;2023-04-07T03:13:51;53.25;;;30.83;;
47603;SDS011;33326;51.116;6.900;2023-04-07T03:18:54;55.45;;;32.53;;
47603;SDS011;33326;51.116;6.900;2023-04-07T03:23:57;50.10;;;30.52;;
47603;SDS011;33326;51.116;6.900;2023-04-07T03:28:58;53.88;;;31.52;;
47603;SDS011;33326;51.116;6.900;2023-04-07T03:34:03;58.88;;;33.15;;
47603;SDS011;33326;51.116;6.900;2023-04-07T03:39:05;63.53;;;34.67;;
47603;SDS011;33326;51.116;6.900;2023-04-07T03:44:07;59.75;;;32.78;;
47603;SDS011;33326;51.116;6.900;2023-04-07T03:49:12;61.75;;;32.95;;
47603;SDS011;33326;51.116;6.900;2023-04-07T03:54:15;57.13;;;31.85;;
47603;SDS011;33326;51.116;6.900;2023-04-07T03:59:18;56.38;;;32.35;;
47603;SDS011;33326;51.116;6.900;2023-04-07T04:04:30;57.17;;;31.13;;
47603;SDS011;33326;51.116;6.900;2023-04-07T04:09:32;54.13;;;28.55;;
47603;SDS011;33326;51.116;6.900;2023-04-07T04:14:35;48.17;;;24.75;;
47603;SDS011;33326;51.116;6.900;2023-04-07T04:19:40;44.05;;;25.30;;
47603;SDS011;33326;51.116;6.900;2023-04-07T04:25:10;44.03;;;23.25;;
47603;SDS011;33326;51.116;6.900;2023-04-07T04:30:14;42.03;;;22.40;;
47603;SDS011;33326;51.116;6.900;2023-04-07T04:35:26;38.35;;;21.40;;
47603;SDS011;33326;51.116;6.900;2023-04-07T04:40:38;41.47;;;21.88;;
47603;SDS011;33326;51.116;6.900;2023-04-07T04:45:41;41.15;;;21.63;;
47603;SDS011;33326;51.116;6.900;2023-04-07T04:50:47;36.67;;;20.23;;
47603;SDS011;33326;51.116;6.900;2023-04-07T04:55:49;37.95;;;21.90;;
47603;SDS011;33326;51.116;6.900;2023-04-07T05:00:56;45.17;;;21.95;;
47603;SDS011;33326;51.116;6.900;2023-04-07T05:06:09;36.50;;;20.40;;
47603;SDS011;33326;51.116;6.900;2023-04-07T05:11:11;41.38;;;22.80;;
47603;SDS011;33326;51.116;6.900;2023-04-07T05:16:14;39.47;;;21.35;;
47603;SDS011;33326;51.116;6.900;2023-04-07T05:21:18;34.78;;;20.70;;
47603;SDS011;33326;51.116;6.900;2023-04-07T05:26:22;40.35;;;20.95;;
47603;SDS011;33326;51.116;6.900;2023-04-07T05:31:24;39.97;;;21.13;;
47603;SDS011;33326;51.116;6.900;2023-04-07T05:36:31;39.28;;;19.77;;
47603;SDS011;33326;51.116;6.900;2023-04-07T05:41:33;34.65;;;17.38;;
47603;SDS011;33326;51.116;6.900;2023-04-07T05:46:36;33.20;;;16.15;;
47603;SDS011;33326;51.116;6.900;2023-04-07T05:51:40;28.85;;;14.43;;
47603;SDS011;33326;51.116;6.900;2023-04-07T05:56:45;27.83;;;13.43;;
47603;SDS011;33326;51.116;6.900;2023-04-07T06:01:47;24.38;;;13.20;;
47603;SDS011;33326;51.116;6.900;2023-04-07T06:06:51;22.83;;;13.25;;
47603;SDS011;33326;51.116;6.900;2023-04-07T06:11:54;23.88;;;12.32;;
47603;SDS011;33326;51.116;6.900;2023-04-07T06:16:57;23.33;;;12.35;;
47603;SDS011;33326;51.116;6.900;2023-04-07T06:22:00;20.42;;;11.00;;
47603;SDS011;33326;51.116;6.900;2023-04-07T06:27:02;22.30;;;10.60;;
47603;SDS011;33326;51.116;6.900;2023-04-07T06:32:04;21.10;;;10.95;;
47603;SDS011;33326;51.116;6.900;2023-04-07T06:37:08;22.45;;;11.52;;
47603;SDS011;33326;51.116;6.900;2023-04-07T06:42:10;23.75;;;11.23;;
47603;SDS011;33326;51.116;6.900;2023-04-07T06:47:22;23.77;;;12.85;;
47603;SDS011;33326;51.116;6.900;2023-04-07T06:52:25;25.33;;;12.88;;
47603;SDS011;33326;51.116;6.900;2023-04-07T06:57:27;27.15;;;12.80;;
47603;SDS011;33326;51.116;6.900;2023-04-07T07:02:29;22.55;;;12.25;;
47603;SDS011;33326;51.116;6.900;2023-04-07T07:07:32;24.45;;;11.93;;
47603;SDS011;33326;51.116;6.900;2023-04-07T07:12:34;20.42;;;11.07;;
47603;SDS011;33326;51.116;6.900;2023-04-07T07:17:36;26.35;;;11.68;;
47603;SDS011;33326;51.116;6.900;2023-04-07T07:22:39;23.08;;;11.20;;
47603;SDS011;33326;51.116;6.900;2023-04-07T07:27:41;18.88;;;11.32;;
47603;SDS011;33326;51.116;6.900;2023-04-07T07:32:43;17.65;;;10.68;;
47603;SDS011;33326;51.116;6.900;2023-04-07T07:37:46;19.40;;;10.95;;
47603;SDS011;33326;51.116;6.900;2023-04-07T07:42:48;18.67;;;10.65;;
47603;SDS011;33326;51.116;6.900;2023-04-07T07:47:50;19.80;;;11.35;;
47603;SDS011;33326;51.116;6.900;2023-04-07T07:52:53;20.80;;;11.68;;
47603;SDS011;33326;51.116;6.900;2023-04-07T07:57:55;22.20;;;12.00;;
47603;SDS011;33326;51.116;6.900;2023-04-07T08:02:57;22.45;;;11.93;;
47603;SDS011;33326;51.116;6.900;2023-04-07T08:08:00;27.02;;;13.00;;
47603;SDS011;33326;51.116;6.900;2023-04-07T08:13:04;25.38;;;12.82;;
47603;SDS011;33326;51.116;6.900;2023-04-07T08:18:06;20.88;;;11.98;;
47603;SDS011;33326;51.116;6.900;2023-04-07T08:23:09;22.63;;;11.82;;
47603;SDS011;33326;51.116;6.900;2023-04-07T08:28:11;21.75;;;12.85;;
47603;SDS011;33326;51.116;6.900;2023-04-07T08:33:13;25.15;;;14.07;;
47603;SDS011;33326;51.116;6.900;2023-04-07T08:38:16;24.42;;;13.35;;
47603;SDS011;33326;51.116;6.900;2023-04-07T08:43:18;27.67;;;15.00;;
47603;SDS011;33326;51.116;6.900;2023-04-07T08:48:22;25.20;;;15.15;;
47603;SDS011;33326;51.116;6.900;2023-04-07T08:53:27;27.00;;;13.65;;
47603;SDS011;33326;51.116;6.900;2023-04-07T08:58:35;27.08;;;15.07;;
47603;SDS011;33326;51.116;6.900;2023-04-07T09:03:37;25.95;;;14.38;;
47603;SDS011;33326;51.116;6.900;2023-04-07T09:08:41;28.02;;;15.38;;
47603;SDS011;33326;51.116;6.900;2023-04-07T09:13:42;26.58;;;13.60;;
47603;SDS011;33326;51.116;6.900;2023-04-07T09:18:45;27.30;;;14.30;;
47603;SDS011;33326;51.116;6.900;2023-04-07T09:23:48;29.65;;;14.10;;
47603;SDS011;33326;51.116;6.900;2023-04-07T09:28:51;22.25;;;12.65;;
47603;SDS011;33326;51.116;6.900;2023-04-07T09:33:54;24.10;;;13.40;;
47603;SDS011;33326;51.116;6.900;2023-04-07T09:39:00;23.15;;;12.80;;
47603;SDS011;33326;51.116;6.900;2023-04-07T09:44:08;25.35;;;13.30;;
47603;SDS011;33326;51.116;6.900;2023-04-07T09:49:11;23.30;;;12.52;;
47603;SDS011;33326;51.116;6.900;2023-04-07T09:54:14;22.67;;;12.65;;
47603;SDS011;33326;51.116;6.900;2023-04-07T09:59:33;24.85;;;13.27;;
47603;SDS011;33326;51.116;6.900;2023-04-07T10:04:37;24.55;;;13.95;;
47603;SDS011;33326;51.116;6.900;2023-04-07T10:09:42;29.88;;;15.02;;
47603;SDS011;33326;51.116;6.900;2023-04-07T10:14:43;31.63;;;15.30;;
47603;SDS011;33326;51.116;6.900;2023-04-07T10:19:47;27.35;;;14.80;;
47603;SDS011;33326;51.116;6.900;2023-04-07T10:24:53;24.98;;;14.27;;
47603;SDS011;33326;51.116;6.900;2023-04-07T10:29:59;28.92;;;14.10;;
47603;SDS011;33326;51.116;6.900;2023-04-07T10:35:04;28.17;;;14.75;;
47603;SDS011;33326;51.116;6.900;2023-04-07T10:51:11;27.90;;;15.57;;
47603;SDS011;33326;51.116;6.900;2023-04-07T10:56:15;25.35;;;14.82;;
47603;SDS011;33326;51.116;6.900;2023-04-07T11:01:18;27.25;;;13.95;;
47603;SDS011;33326;51.116;6.900;2023-04-07T11:06:21;26.75;;;14.45;;
47603;SDS011;33326;51.116;6.900;2023-04-07T11:11:40;24.40;;;13.55;;
47603;SDS011;33326;51.116;6.900;2023-04-07T11:16:42;25.73;;;14.40;;
47603;SDS011;33326;51.116;6.900;2023-04-07T11:21:44;26.10;;;14.05;;
47603;SDS011;33326;51.116;6.900;2023-04-07T11:26:48;27.73;;;15.05;;
47603;SDS011;33326;51.116;6.900;2023-04-07T11:31:50;23.38;;;13.65;;
47603;SDS011;33326;51.116;6.900;2023-04-07T11:36:51;25.33;;;14.40;;
47603;SDS011;33326;51.116;6.900;2023-04-07T11:41:59;24.85;;;14.32;;
47603;SDS011;33326;51.116;6.900;2023-04-07T11:47:01;29.55;;;15.40;;
47603;SDS011;33326;51.116;6.900;2023-04-07T11:52:04;25.80;;;14.68;;
47603;SDS011;33326;51.116;6.900;2023-04-07T11:57:08;22.83;;;13.23;;
47603;SDS011;33326;51.116;6.900;2023-04-07T12:02:22;21.33;;;13.25;;
47603;SDS011;33326;51.116;6.900;2023-04-07T12:07:31;23.27;;;12.52;;
47603;SDS011;33326;51.116;6.900;2023-04-07T12:12:34;20.73;;;12.65;;
47603;SDS011;33326;51.116;6.900;2023-04-07T12:17:37;18.73;;;12.60;;
47603;SDS011;33326;51.116;6.900;2023-04-07T12:22:39;18.88;;;12.00;;
47603;SDS011;33326;51.116;6.900;2023-04-07T12:27:42;18.65;;;11.55;;
47603;SDS011;33326;51.116;6.900;2023-04-07T12:32:44;17.88;;;11.65;;
47603;SDS011;33326;51.116;6.900;2023-04-07T12:37:46;19.73;;;12.32;;
47603;SDS011;33326;51.116;6.900;2023-04-07T12:42:49;20.48;;;13.35;;
47603;SDS011;33326;51.116;6.900;2023-04-07T12:47:51;19.63;;;13.15;;
47603;SDS011;33326;51.116;6.900;2023-04-07T12:52:53;15.88;;;12.23;;
47603;SDS011;33326;51.116;6.900;2023-04-07T12:57:59;16.45;;;11.65;;
47603;SDS011;33326;51.116;6.900;2023-04-07T13:03:01;17.10;;;12.25;;
47603;SDS011;33326;51.116;6.900;2023-04-07T13:08:03;16.45;;;11.05;;
47603;SDS011;33326;51.116;6.900;2023-04-07T13:13:08;17.90;;;10.65;;
47603;SDS011;33326;51.116;6.900;2023-04-07T13:18:10;14.52;;;9.82;;
47603;SDS011;33326;51.116;6.900;2023-04-07T13:23:12;15.35;;;10.23;;
47603;SDS011;33326;51.116;6.900;2023-04-07T13:28:15;14.15;;;9.82;;
47603;SDS011;33326;51.116;6.900;2023-04-07T13:33:20;15.10;;;9.40;;
47603;SDS011;33326;51.116;6.900;2023-04-07T13:38:21;17.73;;;10.43;;
47603;SDS011;33326;51.116;6.900;2023-04-07T13:43:25;15.20;;;9.57;;
47603;SDS011;33326;51.116;6.900;2023-04-07T13:48:26;16.95;;;9.82;;
47603;SDS011;33326;51.116;6.900;2023-04-07T13:53:28;14.60;;;9.98;;
47603;SDS011;33326;51.116;6.900;2023-04-07T13:58:31;14.82;;;10.23;;
47603;SDS011;33326;51.116;6.900;2023-04-07T14:03:33;17.15;;;10.70;;
47603;SDS011;33326;51.116;6.900;2023-04-07T14:08:35;16.27;;;10.38;;
47603;SDS011;33326;51.116;6.900;2023-04-07T14:13:38;16.25;;;11.15;;
47603;SDS011;33326;51.116;6.900;2023-04-07T14:18:43;15.52;;;10.38;;
47603;SDS011;33326;51.116;6.900;2023-04-07T14:23:45;17.75;;;11.43;;
47603;SDS011;33326;51.116;6.900;2023-04-07T14:28:49;17.92;;;11.32;;
47603;SDS011;33326;51.116;6.900;2023-04-07T14:33:51;19.45;;;13.13;;
47603;SDS011;33326;51.116;6.900;2023-04-07T14:38:53;19.73;;;12.77;;
47603;SDS011;33326;51.116;6.900;2023-04-07T14:43:57;17.83;;;12.98;;
47603;SDS011;33326;51.116;6.900;2023-04-07T14:48:59;21.08;;;13.30;;
47603;SDS011;33326;51.116;6.900;2023-04-07T14:54:02;20.88;;;13.40;;
47603;SDS011;33326;51.116;6.900;2023-04-07T14:59:05;20.50;;;13.10;;
47603;SDS011;33326;51.116;6.900;2023-04-07T15:04:07;20.88;;;12.82;;
47603;SDS011;33326;51.116;6.900;2023-04-07T15:09:09;21.23;;;13.25;;
47603;SDS011;33326;51.116;6.900;2023-04-07T15:14:13;23.50;;;13.85;;
47603;SDS011;33326;51.116;6.900;2023-04-07T15:19:15;24.23;;;14.82;;
47603;SDS011;33326;51.116;6.900;2023-04-07T15:24:17;19.90;;;14.20;;
47603;SDS011;33326;51.116;6.900;2023-04-07T15:29:22;20.42;;;12.80;;
47603;SDS011;33326;51.116;6.900;2023-04-07T15:34:24;20.27;;;11.25;;
47603;SDS011;33326;51.116;6.900;2023-04-07T15:39:26;17.73;;;11.43;;
47603;SDS011;33326;51.116;6.900;2023-04-07T15:44:30;20.38;;;10.43;;
47603;SDS011;33326;51.116;6.900;2023-04-07T15:49:38;17.80;;;10.03;;
47603;SDS011;33326;51.116;6.900;2023-04-07T15:54:41;17.45;;;10.02;;
47603;SDS011;33326;51.116;6.900;2023-04-07T15:59:44;16.70;;;10.00;;
47603;SDS011;33326;51.116;6.900;2023-04-07T16:04:46;15.77;;;10.13;;
47603;SDS011;33326;51.116;6.900;2023-04-07T16:09:48;16.50;;;10.15;;
47603;SDS011;33326;51.116;6.900;2023-04-07T16:14:51;15.20;;;10.35;;
47603;SDS011;33326;51.116;6.900;2023-04-07T16:19:53;19.70;;;10.52;;
47603;SDS011;33326;51.116;6.900;2023-04-07T16:24:55;17.77;;;10.18;;
47603;SDS011;33326;51.116;6.900;2023-04-07T16:29:58;20.05;;;10.23;;
47603;SDS011;33326;51.116;6.900;2023-04-07T16:35:01;19.17;;;10.30;;
47603;SDS011;33326;51.116;6.900;2023-04-07T16:40:03;15.00;;;9.40;;
47603;SDS011;33326;51.116;6.900;2023-04-07T16:45:08;15.10;;;10.25;;
47603;SDS011;33326;51.116;6.900;2023-04-07T16:50:10;18.33;;;10.48;;
47603;SDS011;33326;51.116;6.900;2023-04-07T16:55:12;16.40;;;10.13;;
47603;SDS011;33326;51.116;6.900;2023-04-07T17:00:16;15.82;;;10.27;;
47603;SDS011;33326;51.116;6.900;2023-04-07T17:05:19;17.80;;;10.55;;
47603;SDS011;33326;51.116;6.900;2023-04-07T17:10:21;13.98;;;9.82;;
47603;SDS011;33326;51.116;6.900;2023-04-07T17:15:24;21.65;;;12.82;;
47603;SDS011;33326;51.116;6.900;2023-04-07T17:20:26;18.92;;;10.98;;
47603;SDS011;33326;51.116;6.900;2023-04-07T17:25:28;16.42;;;11.65;;
47603;SDS011;33326;51.116;6.900;2023-04-07T17:30:31;18.58;;;11.68;;
47603;SDS011;33326;51.116;6.900;2023-04-07T17:35:33;23.95;;;11.85;;
47603;SDS011;33326;51.116;6.900;2023-04-07T17:40:35;17.63;;;11.18;;
47603;SDS011;33326;51.116;6.900;2023-04-07T17:45:38;21.02;;;13.57;;
47603;SDS011;33326;51.116;6.900;2023-04-07T17:50:40;23.70;;;15.15;;
47603;SDS011;33326;51.116;6.900;2023-04-07T17:55:42;30.05;;;16.33;;
47603;SDS011;33326;51.116;6.900;2023-04-07T18:00:46;27.48;;;17.45;;
47603;SDS011;33326;51.116;6.900;2023-04-07T18:05:47;31.45;;;18.20;;
47603;SDS011;33326;51.116;6.900;2023-04-07T18:10:49;26.95;;;16.98;;
47603;SDS011;33326;51.116;6.900;2023-04-07T18:15:53;26.30;;;15.52;;
47603;SDS011;33326;51.116;6.900;2023-04-07T18:20:55;27.05;;;14.85;;
47603;SDS011;33326;51.116;6.900;2023-04-07T18:25:57;21.05;;;13.02;;
47603;SDS011;33326;51.116;6.900;2023-04-07T18:31:00;19.48;;;12.82;;
47603;SDS011;33326;51.116;6.900;2023-04-07T18:36:05;22.83;;;12.63;;
47603;SDS011;33326;51.116;6.900;2023-04-07T18:41:07;21.55;;;12.43;;
47603;SDS011;33326;51.116;6.900;2023-04-07T18:46:13;21.52;;;12.77;;
47603;SDS011;33326;51.116;6.900;2023-04-07T18:51:15;19.45;;;12.15;;
47603;SDS011;33326;51.116;6.900;2023-04-07T18:56:17;18.65;;;13.00;;
47603;SDS011;33326;51.116;6.900;2023-04-07T19:01:21;22.23;;;13.48;;
47603;SDS011;33326;51.116;6.900;2023-04-07T19:06:24;25.10;;;13.30;;
47603;SDS011;33326;51.116;6.900;2023-04-07T19:11:27;22.27;;;13.82;;
47603;SDS011;33326;51.116;6.900;2023-04-07T19:16:30;22.40;;;13.52;;
47603;SDS011;33326;51.116;6.900;2023-04-07T19:21:34;22.55;;;13.40;;
47603;SDS011;33326;51.116;6.900;2023-04-07T19:26:36;24.42;;;14.23;;
47603;SDS011;33326;51.116;6.900;2023-04-07T19:31:39;29.83;;;14.50;;
47603;SDS011;33326;51.116;6.900;2023-04-07T19:36:41;28.10;;;14.02;;
47603;SDS011;33326;51.116;6.900;2023-04-07T19:41:42;30.98;;;14.13;;
47603;SDS011;33326;51.116;6.900;2023-04-07T19:46:46;31.42;;;14.23;;
47603;SDS011;33326;51.116;6.900;2023-04-07T19:51:50;26.90;;;14.48;;
47603;SDS011;33326;51.116;6.900;2023-04-07T19:56:53;24.63;;;14.23;;
47603;SDS011;33326;51.116;6.900;2023-04-07T20:01:56;24.88;;;14.40;;
47603;SDS011;33326;51.116;6.900;2023-04-07T20:06:58;28.63;;;15.65;;
47603;SDS011;33326;51.116;6.900;2023-04-07T20:12:00;31.10;;;15.50;;
47603;SDS011;33326;51.116;6.900;2023-04-07T20:17:04;33.35;;;15.57;;
47603;SDS011;33326;51.116;6.900;2023-04-07T20:22:06;28.52;;;15.07;;
47603;SDS011;33326;51.116;6.900;2023-04-07T20:27:08;28.30;;;15.43;;
47603;SDS011;33326;51.116;6.900;2023-04-07T20:32:11;34.45;;;16.15;;
47603;SDS011;33326;51.116;6.900;2023-04-07T20:37:13;32.50;;;17.38;;
47603;SDS011;33326;51.116;6.900;2023-04-07T20:42:15;26.80;;;15.85;;
47603;SDS011;33326;51.116;6.900;2023-04-07T20:47:18;29.83;;;15.77;;
47603;SDS011;33326;51.116;6.900;2023-04-07T20:52:20;30.08;;;15.38;;
47603;SDS011;33326;51.116;6.900;2023-04-07T20:57:23;29.42;;;16.05;;
47603;SDS011;33326;51.116;6.900;2023-04-07T21:02:27;33.78;;;17.63;;
47603;SDS011;33326;51.116;6.900;2023-04-07T21:07:29;31.40;;;16.08;;
47603;SDS011;33326;51.116;6.900;2023-04-07T21:12:31;33.42;;;18.58;;
47603;SDS011;33326;51.116;6.900;2023-04-07T21:17:34;31.20;;;19.08;;
47603;SDS011;33326;51.116;6.900;2023-04-07T21:22:36;37.63;;;19.23;;
47603;SDS011;33326;51.116;6.900;2023-04-07T21:27:38;31.80;;;18.40;;
47603;SDS011;33326;51.116;6.900;2023-04-07T21:32:41;30.85;;;17.48;;
47603;SDS011;33326;51.116;6.900;2023-04-07T21:37:45;33.30;;;19.23;;
47603;SDS011;33326;51.116;6.900;2023-04-07T21:42:47;39.58;;;20.60;;
47603;SDS011;33326;51.116;6.900;2023-04-07T21:47:52;34.80;;;20.55;;
47603;SDS011;33326;51.116;6.900;2023-04-07T21:52:54;35.25;;;20.45;;
47603;SDS011;33326;51.116;6.900;2023-04-07T21:57:56;39.83;;;21.83;;
47603;SDS011;33326;51.116;6.900;2023-04-07T22:03:00;52.20;;;23.00;;
47603;SDS011;33326;51.116;6.900;2023-04-07T22:08:02;48.50;;;23.33;;
47603;SDS011;33326;51.116;6.900;2023-04-07T22:13:04;46.90;;;22.48;;
47603;SDS011;33326;51.116;6.900;2023-04-07T22:18:08;43.50;;;22.83;;
47603;SDS011;33326;51.116;6.900;2023-04-07T22:23:10;41.70;;;22.02;;
47603;SDS011;33326;51.116;6.900;2023-04-07T22:28:12;44.03;;;23.63;;
47603;SDS011;33326;51.116;6.900;2023-04-07T22:33:15;42.65;;;22.80;;
47603;SDS011;33326;51.116;6.900;2023-04-07T22:38:17;49.00;;;25.52;;
47603;SDS011;33326;51.116;6.900;2023-04-07T22:43:18;41.58;;;22.52;;
47603;SDS011;33326;51.116;6.900;2023-04-07T22:48:22;40.78;;;23.42;;
47603;SDS011;33326;51.116;6.900;2023-04-07T22:53:23;47.72;;;25.80;;
47603;SDS011;33326;51.116;6.900;2023-04-07T22:58:25;43.65;;;23.20;;
47603;SDS011;33326;51.116;6.900;2023-04-07T23:03:29;45.97;;;24.77;;
47603;SDS011;33326;51.116;6.900;2023-04-07T23:08:31;40.13;;;24.02;;
47603;SDS011;33326;51.116;6.900;2023-04-07T23:13:32;46.28;;;24.02;;
47603;SDS011;33326;51.116;6.900;2023-04-07T23:18:36;42.33;;;25.33;;
47603;SDS011;33326;51.116;6.900;2023-04-07T23:23:38;50.22;;;25.77;;
47603;SDS011;33326;51.116;6.900;2023-04-07T23:28:47;45.42;;;26.50;;
47603;SDS011;33326;51.116;6.900;2023-04-07T23:33:51;51.40;;;25.42;;
47603;SDS011;33326;51.116;6.900;2023-04-07T23:38:53;48.05;;;24.08;;
47603;SDS011;33326;51.116;6.900;2023-04-07T23:43:55;45.05;;;25.10;;
47603;SDS011;33326;51.116;6.900;2023-04-07T23:49:00;52.13;;;27.00;;
47603;SDS011;33326;51.116;6.900;2023-04-07T23:54:02;49.30;;;26.05;;
47603;SDS011;33326;51.116;6.900;2023-04-07T23:59:07;53.20;;;28.13;;
